Time;durP1;ratioP1;P1;durP2;ratioP2;P2;SDS_P1;SDS_P2;PMS_P1;PMS_P2;Temp;Humidity;BMP_temperature;BMP_pressure;BME280_temperature;BME280_humidity;BME280_pressure;Samples;Min_cycle;Max_cycle;Signal;HPM_P1;HPM_P2
2021/03/21 00:04:25;;;;;;;27.87;17.93;;;;;5.60;102047.00;;;;10400791;28;20203;-75
2021/03/21 00:09:26;;;;;;;30.93;17.87;;;;;5.60;102050.00;;;;10384633;28;20187;-75
2021/03/21 00:14:30;;;;;;;30.53;17.53;;;;;5.60;102026.00;;;;10400949;28;20222;-75
2021/03/21 00:19:32;;;;;;;28.60;18.03;;;;;5.60;102047.00;;;;10383597;28;20677;-75
2021/03/21 00:24:33;;;;;;;29.23;16.90;;;;;5.70;102032.00;;;;10400538;28;20199;-75
2021/03/21 00:29:58;;;;;;;29.30;17.50;;;;;5.70;102025.00;;;;10401674;28;20207;-75
2021/03/21 00:34:59;;;;;;;29.77;16.77;;;;;5.80;102036.00;;;;10399632;28;20194;-75
2021/03/21 00:40:06;;;;;;;28.13;17.00;;;;;5.80;102050.00;;;;10366496;28;20210;-75
2021/03/21 00:45:10;;;;;;;26.67;18.17;;;;;5.80;102051.00;;;;10418317;28;20191;-75
2021/03/21 00:50:19;;;;;;;27.20;16.83;;;;;5.90;102038.00;;;;10440256;28;20190;-75
2021/03/21 00:55:21;;;;;;;25.77;16.07;;;;;5.90;102047.00;;;;10438943;28;20602;-75
2021/03/21 01:00:27;;;;;;;26.50;15.93;;;;;5.90;102042.00;;;;10422522;28;20233;-75
2021/03/21 01:05:34;;;;;;;29.90;17.23;;;;;5.90;102038.00;;;;10385622;28;20202;-75
2021/03/21 01:10:35;;;;;;;23.20;15.33;;;;;5.90;102033.00;;;;10357290;28;20712;-75
2021/03/21 01:15:37;;;;;;;22.73;14.83;;;;;5.90;102024.00;;;;10356901;28;20211;-75
2021/03/21 01:20:38;;;;;;;25.37;16.80;;;;;5.90;102018.00;;;;10361545;28;20206;-75
2021/03/21 01:25:39;;;;;;;24.67;14.47;;;;;5.90;102010.00;;;;10397381;28;20195;-75
2021/03/21 01:30:41;;;;;;;24.30;15.30;;;;;5.90;102007.00;;;;10365026;28;20199;-75
2021/03/21 01:35:42;;;;;;;27.30;15.47;;;;;5.90;102006.00;;;;10397198;28;20198;-75
2021/03/21 01:40:45;;;;;;;23.87;14.80;;;;;5.90;102004.00;;;;10348423;28;20739;-75
2021/03/21 01:45:49;;;;;;;26.13;16.37;;;;;5.90;101992.00;;;;10380750;28;20281;-75
2021/03/21 01:50:57;;;;;;;25.43;16.67;;;;;6.00;101993.00;;;;10396483;28;20187;-75
2021/03/21 01:56:01;;;;;;;23.23;16.13;;;;;6.00;101985.00;;;;10348132;28;20194;-76
2021/03/21 02:01:38;;;;;;;24.90;14.80;;;;;6.00;101981.00;;;;10396781;28;20238;-76
2021/03/21 02:07:06;;;;;;;23.77;14.87;;;;;6.00;101962.00;;;;10385436;28;20257;-76
2021/03/21 02:12:10;;;;;;;23.63;15.10;;;;;6.00;101977.00;;;;10410174;28;20198;-76
2021/03/21 02:17:21;;;;;;;25.27;14.73;;;;;6.00;101965.00;;;;10369833;28;20196;-77
2021/03/21 02:22:29;;;;;;;24.10;15.70;;;;;5.90;101956.00;;;;10337347;28;20200;-76
2021/03/21 02:27:49;;;;;;;22.87;15.83;;;;;5.90;101954.00;;;;10359550;28;20248;-76
2021/03/21 02:33:07;;;;;;;29.03;16.87;;;;;5.90;101940.00;;;;10409667;28;20203;-76
2021/03/21 02:38:31;;;;;;;29.57;17.07;;;;;5.90;101941.00;;;;10376995;28;20213;-76
2021/03/21 02:43:40;;;;;;;26.70;16.87;;;;;5.90;101947.00;;;;10376815;28;20611;-76
2021/03/21 02:48:50;;;;;;;29.33;18.57;;;;;5.90;101932.00;;;;10392629;28;20191;-76
2021/03/21 02:53:58;;;;;;;28.77;18.60;;;;;5.90;101936.00;;;;10409368;28;20210;-76
2021/03/21 02:59:13;;;;;;;34.17;20.10;;;;;5.90;101914.00;;;;10393253;28;20797;-77
2021/03/21 03:04:21;;;;;;;37.30;21.70;;;;;5.90;101906.00;;;;10393029;28;20194;-77
2021/03/21 03:09:35;;;;;;;37.10;20.47;;;;;5.90;101895.00;;;;10392958;28;20262;-77
2021/03/21 03:14:39;;;;;;;39.27;22.37;;;;;6.00;101895.00;;;;10408851;28;20701;-74
2021/03/21 03:20:05;;;;;;;39.77;23.53;;;;;6.00;101895.00;;;;10402723;28;20242;-75
2021/03/21 03:25:17;;;;;;;42.43;23.67;;;;;6.00;101879.00;;;;10418952;28;20503;-75
2021/03/21 03:30:28;;;;;;;37.47;20.80;;;;;6.00;101884.00;;;;10401949;28;20206;-75
2021/03/21 03:35:29;;;;;;;42.83;22.57;;;;;6.10;101883.00;;;;10369480;28;20199;-76
2021/03/21 03:40:34;;;;;;;36.50;21.43;;;;;6.10;101872.00;;;;10401327;28;20211;-75
2021/03/21 03:46:01;;;;;;;40.17;23.73;;;;;6.10;101870.00;;;;10407135;28;20522;-76
2021/03/21 03:51:21;;;;;;;40.67;23.03;;;;;6.10;101874.00;;;;10442357;28;20277;-76
2021/03/21 03:56:33;;;;;;;44.83;25.50;;;;;6.10;101870.00;;;;10426259;28;20182;-76
2021/03/21 04:02:08;;;;;;;47.87;26.27;;;;;6.20;101879.00;;;;10442404;28;20620;-76
2021/03/21 04:07:13;;;;;;;43.93;26.13;;;;;6.20;101863.00;;;;10436943;28;20738;-76
2021/03/21 04:12:19;;;;;;;45.90;24.90;;;;;6.20;101844.00;;;;10359936;28;20196;-76
2021/03/21 04:17:42;;;;;;;41.60;24.77;;;;;6.30;101855.00;;;;10359507;28;20194;-76
2021/03/21 04:22:52;;;;;;;41.17;23.43;;;;;6.30;101863.00;;;;10359572;28;20550;-76
2021/03/21 04:28:01;;;;;;;43.77;24.37;;;;;6.30;101861.00;;;;10358345;28;20184;-76
2021/03/21 04:33:09;;;;;;;41.00;24.27;;;;;6.30;101869.00;;;;10326302;28;20192;-76
2021/03/21 04:38:35;;;;;;;43.43;23.00;;;;;6.30;101865.00;;;;10342149;28;20214;-75
2021/03/21 04:43:48;;;;;;;42.53;24.70;;;;;6.30;101886.00;;;;10364306;28;20234;-76
2021/03/21 04:48:52;;;;;;;39.20;23.27;;;;;6.30;101873.00;;;;10389203;28;20553;-76
2021/03/21 04:53:59;;;;;;;51.63;26.97;;;;;6.40;101874.00;;;;10404226;28;20202;-76
2021/03/21 04:59:10;;;;;;;47.60;28.30;;;;;6.40;101879.00;;;;10405285;28;20203;-76
2021/03/21 05:04:24;;;;;;;47.00;25.53;;;;;6.40;101871.00;;;;10398052;28;20210;-76
2021/03/21 05:09:32;;;;;;;48.83;28.57;;;;;6.50;101861.00;;;;10398059;28;20191;-75
2021/03/21 05:14:41;;;;;;;47.90;26.00;;;;;6.50;101876.00;;;;10397995;28;20955;-76
2021/03/21 05:19:50;;;;;;;45.37;26.47;;;;;6.50;101885.00;;;;10365150;28;20641;-76
2021/03/21 05:25:01;;;;;;;41.50;24.10;;;;;6.60;101878.00;;;;10397411;28;20622;-76
2021/03/21 05:30:20;;;;;;;46.10;26.93;;;;;6.60;101856.00;;;;10364662;28;20229;-76
2021/03/21 05:35:26;;;;;;;45.50;26.87;;;;;6.60;101875.00;;;;10381474;28;20199;-75
2021/03/21 05:40:46;;;;;;;58.20;30.57;;;;;6.70;101882.00;;;;10380874;28;20207;-76
2021/03/21 05:46:02;;;;;;;56.63;29.30;;;;;6.70;101879.00;;;;10381179;28;20195;-75
2021/03/21 05:51:20;;;;;;;65.10;32.50;;;;;6.80;101885.00;;;;10395259;28;20248;-75
2021/03/21 05:56:55;;;;;;;57.40;29.63;;;;;6.80;101895.00;;;;10405201;28;20715;-76
2021/03/21 06:02:30;;;;;;;54.27;28.53;;;;;6.90;101873.00;;;;10406751;28;20223;-76
2021/03/21 06:07:55;;;;;;;59.87;30.77;;;;;7.00;101881.00;;;;10397001;28;20187;-76
2021/03/21 06:13:14;;;;;;;66.83;31.87;;;;;7.00;101878.00;;;;10363826;28;20214;-76
2021/03/21 06:18:41;;;;;;;56.03;29.97;;;;;7.20;101881.00;;;;10380226;28;20257;-76
2021/03/21 06:24:11;;;;;;;64.17;30.47;;;;;7.20;101884.00;;;;10380944;28;20201;-76
2021/03/21 06:29:33;;;;;;;51.87;28.90;;;;;7.20;101892.00;;;;10396092;28;20195;-76
2021/03/21 06:34:50;;;;;;;47.20;26.33;;;;;7.20;101897.00;;;;10379969;28;20642;-76
2021/03/21 06:40:16;;;;;;;50.73;29.13;;;;;7.20;101900.00;;;;10396774;28;20264;-76
2021/03/21 06:45:39;;;;;;;49.80;27.07;;;;;7.40;101909.00;;;;10379614;28;20191;-76
2021/03/21 06:50:43;;;;;;;54.13;29.97;;;;;7.50;101897.00;;;;10362911;28;20654;-76
2021/03/21 06:55:57;;;;;;;48.33;27.27;;;;;7.70;101891.00;;;;10419701;28;20191;-76
2021/03/21 07:01:20;;;;;;;60.17;31.97;;;;;7.80;101899.00;;;;10386442;28;20261;-76
2021/03/21 07:06:22;;;;;;;51.73;31.53;;;;;7.90;101910.00;;;;10403424;28;20197;-76
2021/03/21 07:11:44;;;;;;;57.03;32.57;;;;;7.90;101910.00;;;;10403427;28;20182;-76
2021/03/21 07:16:52;;;;;;;55.93;32.70;;;;;8.10;101934.00;;;;10386563;28;20253;-76
2021/03/21 07:22:45;;;;;;;38.30;23.03;;;;;8.70;101922.00;;;;10386219;28;20245;-76
2021/03/21 07:28:01;;;;;;;31.17;19.03;;;;;9.00;101930.00;;;;10401674;28;20199;-76
2021/03/21 07:33:13;;;;;;;24.47;16.60;;;;;9.30;101942.00;;;;10385693;28;20190;-76
2021/03/21 07:38:35;;;;;;;17.57;11.97;;;;;9.40;101960.00;;;;10362783;28;20235;-76
2021/03/21 07:43:57;;;;;;;15.13;7.50;;;;;9.30;101951.00;;;;10402005;28;20222;-76
2021/03/21 07:49:29;;;;;;;9.97;5.47;;;;;9.40;101959.00;;;;10368944;28;20194;-76
2021/03/21 07:54:55;;;;;;;13.87;6.03;;;;;9.50;101961.00;;;;10368441;28;20191;-76
2021/03/21 07:59:57;;;;;;;8.13;4.33;;;;;9.50;101949.00;;;;10384480;28;20314;-75
2021/03/21 08:05:06;;;;;;;9.33;4.90;;;;;9.60;101970.00;;;;10401087;28;20202;-76
2021/03/21 08:10:34;;;;;;;8.47;4.10;;;;;9.80;101983.00;;;;10400453;28;20643;-76
2021/03/21 08:15:37;;;;;;;8.47;3.07;;;;;10.30;101987.00;;;;10416992;28;20280;-76
2021/03/21 08:20:48;;;;;;;8.43;2.17;;;;;10.40;101989.00;;;;10383720;28;20682;-76
2021/03/21 08:25:51;;;;;;;5.63;1.80;;;;;10.40;101982.00;;;;10367221;28;20233;-76
2021/03/21 08:30:57;;;;;;;6.87;1.60;;;;;10.40;101979.00;;;;10367338;28;20202;-76
2021/03/21 08:36:13;;;;;;;5.60;1.70;;;;;10.50;101979.00;;;;10366921;28;20610;-76
2021/03/21 08:41:14;;;;;;;8.30;1.63;;;;;10.40;101967.00;;;;10399261;28;20207;-76
2021/03/21 08:46:21;;;;;;;8.20;1.87;;;;;10.40;101978.00;;;;10375292;28;20196;-76
2021/03/21 08:51:29;;;;;;;6.87;1.90;;;;;10.40;101970.00;;;;10370758;28;20189;-76
2021/03/21 08:56:36;;;;;;;4.77;1.93;;;;;10.30;101964.00;;;;10414573;28;20252;-76
2021/03/21 09:01:38;;;;;;;5.43;1.40;;;;;10.00;101976.00;;;;10365904;28;20206;-76
2021/03/21 09:06:45;;;;;;;6.07;1.63;;;;;9.80;101986.00;;;;10382629;28;20225;-76
2021/03/21 09:11:50;;;;;;;7.57;2.40;;;;;9.70;101989.00;;;;10365479;28;20191;-76
2021/03/21 09:17:04;;;;;;;7.50;2.33;;;;;10.00;101978.00;;;;10380706;28;20218;-76
2021/03/21 09:22:35;;;;;;;6.67;2.20;;;;;10.40;101983.00;;;;10397781;28;20221;-76
2021/03/21 09:27:39;;;;;;;7.60;2.57;;;;;10.70;101986.00;;;;10398231;28;20203;-76
2021/03/21 09:32:42;;;;;;;6.57;2.47;;;;;10.60;101975.00;;;;10381145;28;20237;-76
2021/03/21 09:37:43;;;;;;;7.17;2.10;;;;;10.60;101978.00;;;;10365154;28;20199;-76
2021/03/21 09:42:50;;;;;;;7.03;2.90;;;;;10.60;101981.00;;;;10364903;28;20563;-76
2021/03/21 09:48:03;;;;;;;4.57;2.17;;;;;10.40;101994.00;;;;10397521;28;20241;-76
2021/03/21 09:53:37;;;;;;;7.07;2.47;;;;;10.20;101997.00;;;;10380454;28;20191;-76
2021/03/21 09:58:57;;;;;;;7.87;3.00;;;;;10.40;101998.00;;;;10380480;28;20616;-76
2021/03/21 10:04:05;;;;;;;6.47;2.50;;;;;11.00;101983.00;;;;10364332;28;20187;-76
2021/03/21 10:09:19;;;;;;;8.30;3.03;;;;;11.10;101990.00;;;;10396535;28;20222;-76
2021/03/21 10:14:27;;;;;;;7.77;3.30;;;;;10.90;101989.00;;;;10413951;28;20203;-76
2021/03/21 10:19:56;;;;;;;7.07;2.73;;;;;10.50;101994.00;;;;10380567;28;20218;-76
2021/03/21 10:25:23;;;;;;;12.63;3.73;;;;;10.90;102010.00;;;;10396431;28;20657;-76
2021/03/21 10:30:26;;;;;;;9.00;3.10;;;;;11.30;102003.00;;;;10390643;28;20625;-76
2021/03/21 10:35:27;;;;;;;6.93;2.20;;;;;11.30;101997.00;;;;10388419;28;20203;-76
2021/03/21 10:40:28;;;;;;;10.50;3.30;;;;;11.10;101995.00;;;;10404779;28;20199;-76
2021/03/21 10:45:32;;;;;;;6.87;2.60;;;;;11.00;101992.00;;;;10421878;28;20195;-75
2021/03/21 10:50:53;;;;;;;7.27;2.67;;;;;11.50;101991.00;;;;10379587;28;20192;-76
2021/03/21 10:56:20;;;;;;;8.90;2.67;;;;;11.50;101993.00;;;;10363058;28;20642;-76
2021/03/21 11:01:26;;;;;;;16.80;3.27;;;;;11.50;101994.00;;;;10378842;28;20230;-75
2021/03/21 11:06:34;;;;;;;6.13;2.50;;;;;11.80;101992.00;;;;10378469;28;20282;-76
2021/03/21 11:11:39;;;;;;;11.17;3.00;;;;;11.30;101994.00;;;;10349807;28;20219;-76
2021/03/21 11:17:01;;;;;;;10.17;2.97;;;;;11.00;101991.00;;;;10378352;28;20288;-75
2021/03/21 11:22:33;;;;;;;13.10;3.60;;;;;11.00;101997.00;;;;10419607;28;20210;-75
2021/03/21 11:27:37;;;;;;;7.47;2.77;;;;;10.90;101995.00;;;;10402912;28;20198;-75
2021/03/21 11:32:41;;;;;;;14.60;3.20;;;;;11.00;101979.00;;;;10371353;28;20807;-75
2021/03/21 11:37:45;;;;;;;10.03;3.03;;;;;11.10;101996.00;;;;10401855;28;20198;-75
2021/03/21 11:42:49;;;;;;;11.13;3.43;;;;;11.40;101982.00;;;;10419135;28;20218;-75
2021/03/21 11:47:54;;;;;;;12.73;3.60;;;;;11.30;101988.00;;;;10402100;28;20220;-75
2021/03/21 11:52:58;;;;;;;11.33;3.63;;;;;11.40;101984.00;;;;10385563;28;20197;-76
2021/03/21 11:58:05;;;;;;;12.73;4.07;;;;;11.20;101991.00;;;;10385264;28;20190;-75
2021/03/21 12:03:16;;;;;;;16.10;4.73;;;;;11.20;101993.00;;;;10384616;28;20662;-76
2021/03/21 12:08:33;;;;;;;12.00;3.33;;;;;11.50;101983.00;;;;10384336;28;20191;-76
2021/03/21 12:13:38;;;;;;;16.13;3.87;;;;;11.60;101993.00;;;;10352063;28;20215;-76
2021/03/21 12:18:40;;;;;;;8.80;3.63;;;;;11.60;101991.00;;;;10367685;28;20244;-76
2021/03/21 12:23:51;;;;;;;13.70;4.37;;;;;11.70;101986.00;;;;10359129;28;20199;-76
2021/03/21 12:28:58;;;;;;;14.87;3.67;;;;;11.80;101975.00;;;;10359327;28;20204;-76
2021/03/21 12:34:42;;;;;;;12.00;3.00;;;;;11.30;101975.00;;;;10375100;28;20721;-76
2021/03/21 12:39:47;;;;;;;14.80;4.13;;;;;11.00;101967.00;;;;10377834;28;20198;-75
2021/03/21 12:45:07;;;;;;;8.57;3.83;;;;;11.00;101973.00;;;;10383180;28;20723;-76
2021/03/21 12:50:34;;;;;;;16.67;5.50;;;;;11.60;101964.00;;;;10406239;28;20213;-75
2021/03/21 12:55:36;;;;;;;14.97;5.13;;;;;11.50;101972.00;;;;10407217;28;20193;-75
2021/03/21 13:00:38;;;;;;;16.00;2.77;;;;;11.60;101955.00;;;;10440563;28;20201;-75
2021/03/21 13:05:44;;;;;;;12.97;3.87;;;;;11.70;101957.00;;;;10440405;28;20199;-75
2021/03/21 13:10:47;;;;;;;12.70;3.83;;;;;12.10;101965.00;;;;10406888;28;20193;-75
2021/03/21 13:15:51;;;;;;;19.93;4.20;;;;;12.50;101958.00;;;;10409449;28;20215;-75
2021/03/21 13:20:56;;;;;;;12.47;3.47;;;;;13.00;101954.00;;;;10381218;28;20555;-75
2021/03/21 13:25:57;;;;;;;13.10;3.60;;;;;13.20;101947.00;;;;10345281;28;20229;-75
2021/03/21 13:31:00;;;;;;;14.63;3.67;;;;;13.10;101935.00;;;;10372430;28;20194;-75
2021/03/21 13:36:07;;;;;;;13.43;3.90;;;;;13.00;101938.00;;;;10397523;28;20198;-75
2021/03/21 13:41:09;;;;;;;12.67;3.20;;;;;13.50;101924.00;;;;10362068;28;20271;-75
2021/03/21 13:46:10;;;;;;;20.23;4.37;;;;;13.50;101928.00;;;;10339956;28;20230;-75
2021/03/21 13:51:12;;;;;;;13.13;4.13;;;;;13.20;101926.00;;;;10339895;28;20594;-75
2021/03/21 13:56:14;;;;;;;15.00;3.80;;;;;13.90;101915.00;;;;10340168;28;20670;-75
2021/03/21 14:01:16;;;;;;;17.37;4.13;;;;;14.60;101916.00;;;;10356338;28;20211;-75
2021/03/21 14:06:17;;;;;;;11.90;3.57;;;;;14.20;101893.00;;;;10357031;28;20195;-75
2021/03/21 14:11:19;;;;;;;23.90;4.90;;;;;12.60;101910.00;;;;10339894;28;20199;-75
2021/03/21 14:16:31;;;;;;;15.97;4.50;;;;;12.00;101897.00;;;;10373797;28;20215;-75
2021/03/21 14:21:32;;;;;;;22.17;5.07;;;;;12.70;101888.00;;;;10355532;28;20214;-75
2021/03/21 14:26:34;;;;;;;16.17;4.20;;;;;12.70;101889.00;;;;10356033;28;20219;-75
2021/03/21 14:31:35;;;;;;;17.43;4.73;;;;;11.90;101890.00;;;;10323627;28;20705;-77
2021/03/21 14:36:37;;;;;;;20.33;4.87;;;;;12.00;101882.00;;;;10323457;28;20195;-75
2021/03/21 14:41:39;;;;;;;18.80;4.67;;;;;12.00;101880.00;;;;10339271;28;20221;-75
2021/03/21 14:46:40;;;;;;;13.23;3.77;;;;;12.40;101881.00;;;;10394901;28;20193;-75
2021/03/21 14:51:42;;;;;;;17.70;4.50;;;;;12.00;101894.00;;;;10454948;28;20186;-75
2021/03/21 14:56:43;;;;;;;17.77;4.33;;;;;11.40;101910.00;;;;10379473;28;20198;-75
2021/03/21 15:01:45;;;;;;;20.17;4.17;;;;;11.10;101910.00;;;;10378863;28;20211;-75
2021/03/21 15:07:04;;;;;;;18.60;4.07;;;;;10.60;101909.00;;;;10382721;28;20249;-75
2021/03/21 15:12:06;;;;;;;20.63;4.20;;;;;10.50;101908.00;;;;10379232;28;20195;-75
2021/03/21 15:17:08;;;;;;;15.87;4.10;;;;;10.20;101919.00;;;;10402394;28;20199;-75
2021/03/21 15:22:10;;;;;;;18.97;4.90;;;;;10.10;101927.00;;;;10369675;28;20254;-75
2021/03/21 15:27:15;;;;;;;20.33;4.17;;;;;10.10;101926.00;;;;10387004;28;20206;-75
2021/03/21 15:32:17;;;;;;;20.90;4.57;;;;;9.70;101924.00;;;;10385853;28;20198;-75
2021/03/21 15:37:18;;;;;;;11.33;3.80;;;;;9.50;101923.00;;;;10385956;28;20826;-75
2021/03/21 15:42:20;;;;;;;18.47;4.37;;;;;9.60;101910.00;;;;10370265;28;20206;-75
2021/03/21 15:47:21;;;;;;;16.57;3.80;;;;;9.90;101918.00;;;;10405363;28;20591;-75
2021/03/21 15:52:23;;;;;;;15.13;4.53;;;;;9.90;101907.00;;;;10443342;28;20273;-75
2021/03/21 15:57:24;;;;;;;27.23;5.17;;;;;9.70;101919.00;;;;10426558;28;20190;-75
2021/03/21 16:02:28;;;;;;;21.27;4.83;;;;;9.20;101932.00;;;;10403981;28;20211;-75
2021/03/21 16:07:30;;;;;;;16.77;5.07;;;;;9.10;101926.00;;;;10368640;28;20199;-75
2021/03/21 16:12:32;;;;;;;17.30;4.73;;;;;9.10;101931.00;;;;10336532;28;20281;-75
2021/03/21 16:17:33;;;;;;;21.80;4.27;;;;;8.90;101927.00;;;;10328254;28;20238;-75
2021/03/21 16:22:36;;;;;;;23.80;4.60;;;;;9.00;101926.00;;;;10380050;28;20210;-75
2021/03/21 16:27:38;;;;;;;23.30;5.43;;;;;8.80;101917.00;;;;10400074;28;20269;-75
2021/03/21 16:32:40;;;;;;;18.87;4.60;;;;;8.70;101912.00;;;;10375629;28;20192;-75
2021/03/21 16:37:42;;;;;;;10.13;3.23;;;;;8.70;101908.00;;;;10343443;28;20195;-76
2021/03/21 16:42:43;;;;;;;22.27;5.00;;;;;8.70;101925.00;;;;10366809;28;20218;-76
2021/03/21 16:47:45;;;;;;;17.17;4.97;;;;;8.70;101926.00;;;;10366792;28;20191;-76
2021/03/21 16:52:47;;;;;;;18.17;4.70;;;;;8.50;101931.00;;;;10382433;28;20197;-76
2021/03/21 16:57:48;;;;;;;20.30;3.90;;;;;8.40;101923.00;;;;10366477;28;20245;-76
2021/03/21 17:02:50;;;;;;;18.93;5.50;;;;;8.10;101924.00;;;;10399307;28;20219;-76
2021/03/21 17:07:53;;;;;;;14.90;4.20;;;;;7.90;101943.00;;;;10399201;28;20201;-75
2021/03/21 17:12:54;;;;;;;24.10;5.37;;;;;7.80;101954.00;;;;10381924;28;20210;-75
2021/03/21 17:17:56;;;;;;;22.63;5.87;;;;;7.80;101949.00;;;;10365791;28;20191;-75
2021/03/21 17:22:58;;;;;;;15.53;4.10;;;;;7.70;101944.00;;;;10398688;28;20206;-75
2021/03/21 17:27:59;;;;;;;20.60;5.10;;;;;7.60;101952.00;;;;10381317;28;20203;-75
2021/03/21 17:33:03;;;;;;;22.47;4.40;;;;;7.50;101937.00;;;;10381424;28;20183;-75
2021/03/21 17:38:05;;;;;;;12.33;3.83;;;;;7.40;101952.00;;;;10364198;28;20198;-75
2021/03/21 17:43:09;;;;;;;21.93;4.10;;;;;7.30;101962.00;;;;10414405;28;20297;-75
2021/03/21 17:48:12;;;;;;;17.13;4.13;;;;;7.20;101965.00;;;;10397151;28;20610;-75
2021/03/21 17:53:32;;;;;;;17.33;4.83;;;;;7.20;101976.00;;;;10397827;28;20531;-75
2021/03/21 17:58:34;;;;;;;18.20;3.83;;;;;7.00;101980.00;;;;10380962;28;20211;-75
2021/03/21 18:03:36;;;;;;;19.60;4.73;;;;;7.00;101979.00;;;;10413636;28;20241;-75
2021/03/21 18:08:38;;;;;;;18.37;4.90;;;;;6.90;101988.00;;;;10396515;28;20191;-75
2021/03/21 18:13:41;;;;;;;17.70;5.00;;;;;6.90;101983.00;;;;10380530;28;20249;-75
2021/03/21 18:18:45;;;;;;;17.20;5.07;;;;;6.90;101987.00;;;;10363909;28;20218;-75
2021/03/21 18:23:46;;;;;;;19.77;4.50;;;;;6.80;101984.00;;;;10396514;28;20321;-75
2021/03/21 18:28:48;;;;;;;18.17;3.90;;;;;6.70;101979.00;;;;10380313;28;20252;-75
2021/03/21 18:33:49;;;;;;;18.37;4.20;;;;;6.60;101998.00;;;;10395778;28;20194;-75
2021/03/21 18:38:50;;;;;;;15.40;3.80;;;;;6.50;102000.00;;;;10380389;28;20419;-75
2021/03/21 18:43:53;;;;;;;12.80;3.70;;;;;6.50;102012.00;;;;10413161;28;20299;-75
2021/03/21 18:48:54;;;;;;;20.37;4.43;;;;;6.50;102012.00;;;;10373611;28;20192;-75
2021/03/21 18:53:56;;;;;;;26.93;5.10;;;;;6.50;102014.00;;;;10346437;28;20207;-75
2021/03/21 18:58:57;;;;;;;15.37;4.13;;;;;6.50;102016.00;;;;10354708;28;20253;-75
2021/03/21 19:04:02;;;;;;;23.47;4.67;;;;;6.50;102019.00;;;;10332633;28;20199;-75
2021/03/21 19:09:04;;;;;;;19.70;6.43;;;;;6.50;102007.00;;;;10403019;28;20925;-75
2021/03/21 19:14:07;;;;;;;19.57;4.73;;;;;6.50;102011.00;;;;10421186;28;20202;-75
2021/03/21 19:19:11;;;;;;;17.67;3.73;;;;;6.40;102030.00;;;;10386795;28;20215;-76
2021/03/21 19:24:12;;;;;;;14.93;4.17;;;;;6.40;102033.00;;;;10403337;28;20237;-76
2021/03/21 19:29:15;;;;;;;22.00;5.53;;;;;6.40;102038.00;;;;10386708;28;20650;-76
2021/03/21 19:34:16;;;;;;;18.13;4.17;;;;;6.40;102029.00;;;;10403068;28;20245;-76
2021/03/21 19:39:18;;;;;;;19.53;4.93;;;;;6.40;102048.00;;;;10402648;28;20207;-76
2021/03/21 19:44:32;;;;;;;21.47;4.70;;;;;6.40;102047.00;;;;10386147;28;20642;-75
2021/03/21 19:49:34;;;;;;;19.77;4.80;;;;;6.40;102043.00;;;;10385579;28;20195;-75
2021/03/21 19:54:35;;;;;;;19.70;4.23;;;;;6.40;102037.00;;;;10368844;28;20199;-75
2021/03/21 19:59:36;;;;;;;24.87;3.93;;;;;6.40;102029.00;;;;10400419;28;20882;-75
2021/03/21 20:04:38;;;;;;;14.73;4.17;;;;;6.40;102047.00;;;;10384377;28;20273;-75
2021/03/21 20:09:40;;;;;;;17.63;3.90;;;;;6.40;102045.00;;;;10401916;28;20180;-75
2021/03/21 20:14:51;;;;;;;18.73;4.30;;;;;6.30;102058.00;;;;10381708;28;20246;-75
2021/03/21 20:19:53;;;;;;;18.77;3.67;;;;;6.30;102048.00;;;;10401020;28;20257;-75
2021/03/21 20:24:56;;;;;;;16.80;4.47;;;;;6.30;102055.00;;;;10352102;28;20210;-75
2021/03/21 20:29:57;;;;;;;18.97;4.43;;;;;6.30;102068.00;;;;10417511;28;20203;-75
2021/03/21 20:34:59;;;;;;;12.57;3.30;;;;;6.30;102046.00;;;;10383450;28;20199;-75
2021/03/21 20:40:00;;;;;;;19.07;4.17;;;;;6.30;102055.00;;;;10374465;28;20203;-75
2021/03/21 20:45:14;;;;;;;16.53;4.00;;;;;6.30;102061.00;;;;10342468;28;20351;-75
2021/03/21 20:50:17;;;;;;;19.40;4.33;;;;;6.30;102063.00;;;;10358955;28;20231;-75
2021/03/21 20:55:26;;;;;;;14.50;4.30;;;;;6.30;102051.00;;;;10358584;28;20261;-75
2021/03/21 21:00:34;;;;;;;14.43;3.97;;;;;6.20;102044.00;;;;10342906;28;20207;-75
2021/03/21 21:05:38;;;;;;;21.83;4.50;;;;;6.20;102050.00;;;;10358162;28;20202;-76
2021/03/21 21:10:39;;;;;;;19.40;4.97;;;;;6.20;102043.00;;;;10325389;28;20246;-75
2021/03/21 21:15:42;;;;;;;16.20;4.40;;;;;6.10;102046.00;;;;10358372;28;20371;-75
2021/03/21 21:20:50;;;;;;;17.80;4.57;;;;;6.00;102062.00;;;;10374137;28;20219;-75
2021/03/21 21:25:52;;;;;;;16.80;3.47;;;;;6.00;102052.00;;;;10325484;28;20199;-75
2021/03/21 21:30:55;;;;;;;15.50;3.67;;;;;6.00;102039.00;;;;10346206;28;20214;-75
2021/03/21 21:35:57;;;;;;;16.20;3.77;;;;;5.90;102063.00;;;;10398644;28;20249;-75
2021/03/21 21:40:58;;;;;;;14.63;4.93;;;;;5.90;102057.00;;;;10381974;28;20210;-75
2021/03/21 21:46:12;;;;;;;14.17;3.37;;;;;5.80;102072.00;;;;10397452;28;20183;-75
2021/03/21 21:51:14;;;;;;;11.40;2.97;;;;;5.80;102070.00;;;;10397464;28;20312;-75
2021/03/21 21:56:15;;;;;;;12.67;3.57;;;;;5.70;102061.00;;;;10382091;28;20551;-75
2021/03/21 22:01:17;;;;;;;17.77;3.93;;;;;5.70;102073.00;;;;10397237;28;20210;-75
2021/03/21 22:06:19;;;;;;;16.80;3.87;;;;;5.60;102081.00;;;;10365483;28;20222;-75
2021/03/21 22:11:20;;;;;;;23.23;3.70;;;;;5.60;102076.00;;;;10381308;28;20638;-75
2021/03/21 22:16:29;;;;;;;21.67;4.63;;;;;5.50;102073.00;;;;10365350;28;20234;-75
2021/03/21 22:21:31;;;;;;;16.90;3.30;;;;;5.50;102074.00;;;;10397481;28;20213;-75
2021/03/21 22:26:32;;;;;;;15.17;4.40;;;;;5.40;102083.00;;;;10388950;28;20638;-75
2021/03/21 22:31:34;;;;;;;16.87;3.30;;;;;5.40;102073.00;;;;10372418;28;20305;-75
2021/03/21 22:36:39;;;;;;;16.57;4.20;;;;;5.20;102076.00;;;;10372840;28;20199;-76
2021/03/21 22:41:41;;;;;;;22.40;4.33;;;;;5.10;102081.00;;;;10405249;28;20288;-76
2021/03/21 22:46:53;;;;;;;21.90;3.90;;;;;5.10;102083.00;;;;10406213;28;20197;-76
2021/03/21 22:51:55;;;;;;;12.90;3.27;;;;;5.00;102097.00;;;;10388491;28;20191;-76
2021/03/21 22:56:56;;;;;;;18.40;3.20;;;;;4.90;102095.00;;;;10397461;28;20578;-76
2021/03/21 23:01:57;;;;;;;19.53;4.10;;;;;4.80;102084.00;;;;10386951;28;20245;-76
2021/03/21 23:06:59;;;;;;;22.37;4.60;;;;;4.60;102101.00;;;;10387391;28;20610;-76
2021/03/21 23:12:03;;;;;;;15.13;3.63;;;;;4.50;102098.00;;;;10403682;28;20179;-76
2021/03/21 23:17:17;;;;;;;15.40;3.83;;;;;4.40;102092.00;;;;10404273;28;20545;-76
2021/03/21 23:22:19;;;;;;;16.17;4.23;;;;;4.50;102099.00;;;;10403055;28;20211;-76
2021/03/21 23:27:21;;;;;;;20.77;4.80;;;;;4.50;102094.00;;;;10403051;28;20954;-76
2021/03/21 23:32:22;;;;;;;17.43;3.77;;;;;4.40;102090.00;;;;10369882;28;20646;-76
2021/03/21 23:37:24;;;;;;;20.60;3.30;;;;;4.30;102091.00;;;;10419804;28;20183;-76
2021/03/21 23:42:25;;;;;;;20.03;4.10;;;;;4.30;102093.00;;;;10369445;28;20665;-76
2021/03/21 23:47:47;;;;;;;19.67;4.17;;;;;4.30;102093.00;;;;10402187;28;20194;-76
2021/03/21 23:52:49;;;;;;;20.37;3.93;;;;;4.30;102089.00;;;;10353439;28;20187;-76
2021/03/21 23:57:51;;;;;;;19.17;3.67;;;;;4.40;102087.00;;;;10369606;28;20245;-76
